Airport View

Enter AWOS ICAO identifier for current METAR.

ex. KFNL

KCQB 310415Z AUTO 00000KT 10SM CLR 19/13 A3017 RMK AO2 T01880132

31 May 2020 04:38

Frequency: 119.275

Phone: 405-258-6724

Other Area AWOS: KCUH - KSNL - KSRE - KSWO

TAF KTIK 310100Z 3101/0107 VRB06KT 9999 FEW250 QNH3009INS TX30/3121Z TN15/3112Z